sensor_id;sensor_type;location;lat;lon;timestamp;pressure;altitude;pressure_sealevel;temperature;humidity
70200;BME280;57587;55.688;37.600;2023-03-25T00:00:14;98322.84;;;7.10;67.92
70200;BME280;57587;55.688;37.600;2023-03-25T00:02:44;98327.25;;;7.03;68.30
70200;BME280;57587;55.688;37.600;2023-03-25T00:05:15;98322.31;;;7.00;68.40
70200;BME280;57587;55.688;37.600;2023-03-25T00:07:43;98321.88;;;6.96;68.01
70200;BME280;57587;55.688;37.600;2023-03-25T00:10:12;98321.81;;;6.89;68.30
70200;BME280;57587;55.688;37.600;2023-03-25T00:12:40;98321.44;;;6.92;68.46
70200;BME280;57587;55.688;37.600;2023-03-25T00:15:10;98317.53;;;6.88;68.57
70200;BME280;57587;55.688;37.600;2023-03-25T00:17:38;98324.06;;;6.86;68.35
70200;BME280;57587;55.688;37.600;2023-03-25T00:20:07;98315.63;;;6.82;69.13
70200;BME280;57587;55.688;37.600;2023-03-25T00:22:38;98314.63;;;6.83;68.49
70200;BME280;57587;55.688;37.600;2023-03-25T00:25:13;98312.53;;;6.79;68.60
70200;BME280;57587;55.688;37.600;2023-03-25T00:27:46;98306.19;;;6.80;68.66
70200;BME280;57587;55.688;37.600;2023-03-25T00:30:16;98295.56;;;6.80;68.69
70200;BME280;57587;55.688;37.600;2023-03-25T00:32:44;98296.75;;;6.77;68.48
70200;BME280;57587;55.688;37.600;2023-03-25T00:35:19;98287.16;;;6.76;68.99
70200;BME280;57587;55.688;37.600;2023-03-25T00:37:48;98287.31;;;6.75;68.61
70200;BME280;57587;55.688;37.600;2023-03-25T00:40:18;98284.06;;;6.73;68.96
70200;BME280;57587;55.688;37.600;2023-03-25T00:42:45;98279.06;;;6.63;69.02
70200;BME280;57587;55.688;37.600;2023-03-25T00:45:16;98277.03;;;6.65;69.04
70200;BME280;57587;55.688;37.600;2023-03-25T00:47:43;98275.38;;;6.64;69.11
70200;BME280;57587;55.688;37.600;2023-03-25T00:50:11;98273.81;;;6.69;69.21
70200;BME280;57587;55.688;37.600;2023-03-25T00:52:39;98268.66;;;6.68;68.96
70200;BME280;57587;55.688;37.600;2023-03-25T00:55:07;98267.59;;;6.62;68.91
70200;BME280;57587;55.688;37.600;2023-03-25T00:57:35;98266.16;;;6.60;69.15
70200;BME280;57587;55.688;37.600;2023-03-25T01:00:08;98256.91;;;6.56;69.22
70200;BME280;57587;55.688;37.600;2023-03-25T01:02:36;98271.22;;;6.55;69.08
70200;BME280;57587;55.688;37.600;2023-03-25T01:05:08;98267.34;;;6.57;69.60
70200;BME280;57587;55.688;37.600;2023-03-25T01:07:37;98266.66;;;6.49;69.32
70200;BME280;57587;55.688;37.600;2023-03-25T01:10:07;98260.09;;;6.44;69.73
70200;BME280;57587;55.688;37.600;2023-03-25T01:12:34;98250.66;;;6.42;70.42
70200;BME280;57587;55.688;37.600;2023-03-25T01:15:01;98245.78;;;6.45;70.21
70200;BME280;57587;55.688;37.600;2023-03-25T01:17:29;98245.78;;;6.45;69.86
70200;BME280;57587;55.688;37.600;2023-03-25T01:19:56;98240.09;;;6.49;70.03
70200;BME280;57587;55.688;37.600;2023-03-25T01:22:23;98246.84;;;6.51;69.63
70200;BME280;57587;55.688;37.600;2023-03-25T01:24:50;98244.91;;;6.60;70.16
70200;BME280;57587;55.688;37.600;2023-03-25T01:27:18;98240.19;;;6.62;69.93
70200;BME280;57587;55.688;37.600;2023-03-25T01:29:45;98235.94;;;6.67;69.63
70200;BME280;57587;55.688;37.600;2023-03-25T01:32:12;98243.22;;;6.80;69.50
70200;BME280;57587;55.688;37.600;2023-03-25T01:34:39;98236.25;;;6.79;68.75
70200;BME280;57587;55.688;37.600;2023-03-25T01:37:08;98234.63;;;6.78;68.86
70200;BME280;57587;55.688;37.600;2023-03-25T01:39:36;98225.03;;;6.84;68.89
70200;BME280;57587;55.688;37.600;2023-03-25T01:42:04;98227.53;;;6.85;68.85
70200;BME280;57587;55.688;37.600;2023-03-25T01:47:02;98211.78;;;6.90;68.92
70200;BME280;57587;55.688;37.600;2023-03-25T01:49:34;98207.50;;;6.89;69.04
70200;BME280;57587;55.688;37.600;2023-03-25T01:54:40;98204.31;;;7.01;68.86
70200;BME280;57587;55.688;37.600;2023-03-25T01:57:09;98193.44;;;6.96;69.03
70200;BME280;57587;55.688;37.600;2023-03-25T01:59:38;98191.00;;;7.01;69.02
70200;BME280;57587;55.688;37.600;2023-03-25T02:02:07;98185.31;;;7.04;68.48
70200;BME280;57587;55.688;37.600;2023-03-25T02:07:17;98181.84;;;7.03;69.08
70200;BME280;57587;55.688;37.600;2023-03-25T02:09:45;98183.72;;;7.09;68.63
70200;BME280;57587;55.688;37.600;2023-03-25T02:12:13;98178.59;;;7.14;68.33
70200;BME280;57587;55.688;37.600;2023-03-25T02:14:40;98170.59;;;7.08;68.66
70200;BME280;57587;55.688;37.600;2023-03-25T02:39:39;98124.31;;;7.02;69.10
70200;BME280;57587;55.688;37.600;2023-03-25T02:42:32;98135.78;;;7.03;69.09
70200;BME280;57587;55.688;37.600;2023-03-25T02:47:37;98127.41;;;7.06;69.20
70200;BME280;57587;55.688;37.600;2023-03-25T02:50:13;98117.41;;;7.08;69.17
70200;BME280;57587;55.688;37.600;2023-03-25T02:52:50;98117.41;;;7.08;69.08
70200;BME280;57587;55.688;37.600;2023-03-25T02:55:20;98118.63;;;7.12;69.08
70200;BME280;57587;55.688;37.600;2023-03-25T02:57:50;98123.16;;;7.11;68.92
70200;BME280;57587;55.688;37.600;2023-03-25T03:00:23;98117.84;;;7.18;69.42
70200;BME280;57587;55.688;37.600;2023-03-25T03:02:54;98105.03;;;7.28;68.42
70200;BME280;57587;55.688;37.600;2023-03-25T03:05:29;98106.50;;;7.37;68.17
70200;BME280;57587;55.688;37.600;2023-03-25T03:19:15;98084.03;;;7.53;67.66
70200;BME280;57587;55.688;37.600;2023-03-25T03:21:57;98075.84;;;7.61;67.84
70200;BME280;57587;55.688;37.600;2023-03-25T03:24:33;98071.97;;;7.64;67.44
70200;BME280;57587;55.688;37.600;2023-03-25T03:29:44;98059.47;;;7.65;67.88
70200;BME280;57587;55.688;37.600;2023-03-25T03:35:05;98043.50;;;7.65;68.10
70200;BME280;57587;55.688;37.600;2023-03-25T03:37:40;98050.72;;;7.77;67.59
70200;BME280;57587;55.688;37.600;2023-03-25T03:40:14;98047.63;;;7.80;67.50
70200;BME280;57587;55.688;37.600;2023-03-25T03:45:41;98034.72;;;7.84;67.22
70200;BME280;57587;55.688;37.600;2023-03-25T03:48:16;98032.25;;;7.82;67.45
70200;BME280;57587;55.688;37.600;2023-03-25T03:51:09;98020.59;;;7.83;67.86
70200;BME280;57587;55.688;37.600;2023-03-25T03:53:41;98019.34;;;7.79;67.73
70200;BME280;57587;55.688;37.600;2023-03-25T03:56:10;98021.81;;;7.88;67.61
70200;BME280;57587;55.688;37.600;2023-03-25T03:58:41;98014.47;;;7.96;67.29
70200;BME280;57587;55.688;37.600;2023-03-25T04:01:28;98010.94;;;7.96;67.64
70200;BME280;57587;55.688;37.600;2023-03-25T04:04:07;98000.94;;;7.91;67.87
70200;BME280;57587;55.688;37.600;2023-03-25T04:06:37;98009.53;;;8.00;67.46
70200;BME280;57587;55.688;37.600;2023-03-25T04:09:34;98003.81;;;8.03;67.46
70200;BME280;57587;55.688;37.600;2023-03-25T04:12:14;98006.66;;;7.95;67.49
70200;BME280;57587;55.688;37.600;2023-03-25T04:14:43;97998.06;;;7.99;67.50
70200;BME280;57587;55.688;37.600;2023-03-25T04:17:12;97983.50;;;8.02;67.32
70200;BME280;57587;55.688;37.600;2023-03-25T04:19:39;97985.56;;;8.06;67.34
70200;BME280;57587;55.688;37.600;2023-03-25T04:22:07;97985.34;;;8.01;67.48
70200;BME280;57587;55.688;37.600;2023-03-25T04:24:34;97985.34;;;8.08;67.38
70200;BME280;57587;55.688;37.600;2023-03-25T04:27:03;97980.84;;;8.15;66.57
70200;BME280;57587;55.688;37.600;2023-03-25T04:29:30;97974.28;;;8.24;66.31
70200;BME280;57587;55.688;37.600;2023-03-25T04:31:58;97965.44;;;8.30;66.60
70200;BME280;57587;55.688;37.600;2023-03-25T04:34:26;97961.56;;;8.40;66.09
70200;BME280;57587;55.688;37.600;2023-03-25T04:36:54;97967.69;;;8.47;66.13
70200;BME280;57587;55.688;37.600;2023-03-25T04:39:24;97961.97;;;8.43;65.59
70200;BME280;57587;55.688;37.600;2023-03-25T04:41:51;97955.59;;;8.44;65.73
70200;BME280;57587;55.688;37.600;2023-03-25T04:44:29;97955.75;;;8.56;64.92
70200;BME280;57587;55.688;37.600;2023-03-25T04:47:00;97945.31;;;8.61;64.98
70200;BME280;57587;55.688;37.600;2023-03-25T04:49:28;97949.94;;;8.72;64.59
70200;BME280;57587;55.688;37.600;2023-03-25T04:51:55;97937.00;;;8.76;64.50
70200;BME280;57587;55.688;37.600;2023-03-25T04:54:24;97940.50;;;8.83;63.90
70200;BME280;57587;55.688;37.600;2023-03-25T04:56:51;97928.59;;;8.86;63.88
70200;BME280;57587;55.688;37.600;2023-03-25T04:59:19;97932.44;;;8.90;64.32
70200;BME280;57587;55.688;37.600;2023-03-25T05:01:50;97924.44;;;8.90;64.31
70200;BME280;57587;55.688;37.600;2023-03-25T05:04:18;97924.41;;;8.96;63.63
70200;BME280;57587;55.688;37.600;2023-03-25T05:06:47;97932.41;;;8.96;63.76
70200;BME280;57587;55.688;37.600;2023-03-25T05:09:18;97915.47;;;8.77;64.58
70200;BME280;57587;55.688;37.600;2023-03-25T05:11:45;97915.06;;;8.81;64.89
70200;BME280;57587;55.688;37.600;2023-03-25T05:14:15;97919.06;;;8.96;64.22
70200;BME280;57587;55.688;37.600;2023-03-25T05:16:43;97917.88;;;8.92;64.52
70200;BME280;57587;55.688;37.600;2023-03-25T05:19:10;97921.94;;;9.02;64.43
70200;BME280;57587;55.688;37.600;2023-03-25T05:21:38;97919.69;;;8.98;64.63
70200;BME280;57587;55.688;37.600;2023-03-25T05:24:09;97932.81;;;9.00;65.32
70200;BME280;57587;55.688;37.600;2023-03-25T05:26:38;97926.03;;;8.97;65.23
70200;BME280;57587;55.688;37.600;2023-03-25T05:29:10;97927.94;;;9.22;64.57
70200;BME280;57587;55.688;37.600;2023-03-25T05:31:44;97920.59;;;9.17;64.22
70200;BME280;57587;55.688;37.600;2023-03-25T05:34:12;97924.59;;;9.33;64.02
70200;BME280;57587;55.688;37.600;2023-03-25T05:36:40;97920.44;;;9.37;64.26
70200;BME280;57587;55.688;37.600;2023-03-25T05:39:07;97916.34;;;9.35;63.95
70200;BME280;57587;55.688;37.600;2023-03-25T05:41:35;97926.53;;;9.51;63.62
70200;BME280;57587;55.688;37.600;2023-03-25T05:44:06;97914.75;;;9.59;63.62
70200;BME280;57587;55.688;37.600;2023-03-25T05:46:34;97903.00;;;9.66;63.14
70200;BME280;57587;55.688;37.600;2023-03-25T05:49:01;97894.81;;;9.61;63.73
70200;BME280;57587;55.688;37.600;2023-03-25T05:51:31;97901.13;;;9.67;63.56
70200;BME280;57587;55.688;37.600;2023-03-25T05:54:04;97900.47;;;9.72;63.17
70200;BME280;57587;55.688;37.600;2023-03-25T05:56:38;97905.97;;;9.77;63.28
70200;BME280;57587;55.688;37.600;2023-03-25T05:59:05;97906.19;;;9.75;63.88
70200;BME280;57587;55.688;37.600;2023-03-25T06:01:34;97905.72;;;9.85;63.38
70200;BME280;57587;55.688;37.600;2023-03-25T06:04:04;97911.88;;;9.85;63.30
70200;BME280;57587;55.688;37.600;2023-03-25T06:06:36;97904.97;;;9.96;62.95
70200;BME280;57587;55.688;37.600;2023-03-25T06:09:03;97903.91;;;9.97;63.05
70200;BME280;57587;55.688;37.600;2023-03-25T06:11:30;97907.81;;;10.01;63.23
70200;BME280;57587;55.688;37.600;2023-03-25T06:14:04;97898.75;;;10.21;62.58
70200;BME280;57587;55.688;37.600;2023-03-25T06:16:31;97898.50;;;10.29;62.23
70200;BME280;57587;55.688;37.600;2023-03-25T06:18:59;97888.47;;;10.43;61.83
70200;BME280;57587;55.688;37.600;2023-03-25T06:21:32;97886.47;;;10.56;61.91
70200;BME280;57587;55.688;37.600;2023-03-25T06:23:59;97890.81;;;10.99;60.74
70200;BME280;57587;55.688;37.600;2023-03-25T06:26:28;97881.81;;;11.24;60.05
70200;BME280;57587;55.688;37.600;2023-03-25T06:28:55;97888.00;;;11.36;58.97
70200;BME280;57587;55.688;37.600;2023-03-25T06:31:24;97884.75;;;11.34;59.74
70200;BME280;57587;55.688;37.600;2023-03-25T06:33:54;97871.38;;;11.34;59.55
70200;BME280;57587;55.688;37.600;2023-03-25T06:36:22;97882.75;;;11.29;59.36
70200;BME280;57587;55.688;37.600;2023-03-25T06:38:52;97884.84;;;11.16;60.41
70200;BME280;57587;55.688;37.600;2023-03-25T06:41:20;97881.16;;;10.98;60.24
70200;BME280;57587;55.688;37.600;2023-03-25T06:44:02;97883.31;;;10.78;61.36
70200;BME280;57587;55.688;37.600;2023-03-25T06:46:46;97874.91;;;10.74;61.38
70200;BME280;57587;55.688;37.600;2023-03-25T06:49:15;97882.72;;;10.57;62.62
70200;BME280;57587;55.688;37.600;2023-03-25T06:51:43;97871.75;;;10.47;63.64
70200;BME280;57587;55.688;37.600;2023-03-25T06:54:10;97873.84;;;10.27;64.94
70200;BME280;57587;55.688;37.600;2023-03-25T06:56:37;97869.09;;;10.29;65.56
70200;BME280;57587;55.688;37.600;2023-03-25T06:59:04;97864.47;;;10.36;65.51
70200;BME280;57587;55.688;37.600;2023-03-25T07:01:32;97869.97;;;10.23;65.82
70200;BME280;57587;55.688;37.600;2023-03-25T07:03:59;97860.59;;;10.13;66.25
70200;BME280;57587;55.688;37.600;2023-03-25T07:06:26;97876.28;;;10.10;66.88
70200;BME280;57587;55.688;37.600;2023-03-25T07:08:53;97863.47;;;10.12;67.10
70200;BME280;57587;55.688;37.600;2023-03-25T07:11:28;97870.47;;;10.13;67.49
70200;BME280;57587;55.688;37.600;2023-03-25T07:13:55;97875.50;;;10.21;67.76
70200;BME280;57587;55.688;37.600;2023-03-25T07:16:24;97876.94;;;10.24;67.22
70200;BME280;57587;55.688;37.600;2023-03-25T07:18:52;97875.16;;;10.18;67.62
70200;BME280;57587;55.688;37.600;2023-03-25T07:21:20;97870.97;;;10.22;67.31
70200;BME280;57587;55.688;37.600;2023-03-25T07:23:47;97864.94;;;10.33;67.36
70200;BME280;57587;55.688;37.600;2023-03-25T07:26:15;97871.00;;;10.40;66.83
70200;BME280;57587;55.688;37.600;2023-03-25T07:28:43;97868.94;;;10.42;67.16
70200;BME280;57587;55.688;37.600;2023-03-25T07:31:12;97864.41;;;10.43;66.88
70200;BME280;57587;55.688;37.600;2023-03-25T07:33:39;97868.22;;;10.35;67.57
70200;BME280;57587;55.688;37.600;2023-03-25T07:36:07;97871.25;;;10.38;67.15
70200;BME280;57587;55.688;37.600;2023-03-25T07:38:36;97861.81;;;10.36;67.24
70200;BME280;57587;55.688;37.600;2023-03-25T07:41:08;97848.56;;;10.23;67.45
70200;BME280;57587;55.688;37.600;2023-03-25T07:43:37;97857.16;;;10.25;68.25
70200;BME280;57587;55.688;37.600;2023-03-25T07:46:36;97851.91;;;10.18;68.19
70200;BME280;57587;55.688;37.600;2023-03-25T07:49:03;97856.06;;;10.14;68.87
70200;BME280;57587;55.688;37.600;2023-03-25T07:51:30;97869.97;;;10.23;68.14
70200;BME280;57587;55.688;37.600;2023-03-25T07:54:00;97873.22;;;10.25;68.26
70200;BME280;57587;55.688;37.600;2023-03-25T07:56:32;97870.72;;;10.30;68.24
70200;BME280;57587;55.688;37.600;2023-03-25T07:59:00;97881.69;;;10.40;68.36
70200;BME280;57587;55.688;37.600;2023-03-25T08:01:27;97876.97;;;10.42;68.24
70200;BME280;57587;55.688;37.600;2023-03-25T08:03:54;97874.44;;;10.47;68.08
70200;BME280;57587;55.688;37.600;2023-03-25T08:06:21;97864.84;;;10.39;68.41
70200;BME280;57587;55.688;37.600;2023-03-25T08:08:48;97878.00;;;10.41;68.44
70200;BME280;57587;55.688;37.600;2023-03-25T08:11:16;97872.66;;;10.41;69.29
70200;BME280;57587;55.688;37.600;2023-03-25T08:13:43;97880.22;;;10.44;69.02
70200;BME280;57587;55.688;37.600;2023-03-25T08:16:13;97889.81;;;10.33;68.98
70200;BME280;57587;55.688;37.600;2023-03-25T08:18:41;97894.03;;;10.41;68.75
70200;BME280;57587;55.688;37.600;2023-03-25T08:21:11;97900.22;;;10.42;68.84
70200;BME280;57587;55.688;37.600;2023-03-25T08:23:38;97907.25;;;10.36;68.71
70200;BME280;57587;55.688;37.600;2023-03-25T08:26:06;97906.34;;;10.24;69.42
70200;BME280;57587;55.688;37.600;2023-03-25T08:28:34;97907.38;;;10.23;69.80
70200;BME280;57587;55.688;37.600;2023-03-25T08:31:05;97900.38;;;10.22;69.31
70200;BME280;57587;55.688;37.600;2023-03-25T08:33:34;97902.91;;;10.16;70.25
70200;BME280;57587;55.688;37.600;2023-03-25T08:36:08;97899.28;;;10.11;70.56
70200;BME280;57587;55.688;37.600;2023-03-25T08:38:40;97895.63;;;10.05;70.28
70200;BME280;57587;55.688;37.600;2023-03-25T08:41:07;97898.75;;;10.21;70.81
70200;BME280;57587;55.688;37.600;2023-03-25T08:43:34;97895.34;;;10.13;70.85
70200;BME280;57587;55.688;37.600;2023-03-25T08:46:02;97895.63;;;10.24;70.23
70200;BME280;57587;55.688;37.600;2023-03-25T08:48:29;97895.03;;;10.22;70.55
70200;BME280;57587;55.688;37.600;2023-03-25T08:50:57;97910.63;;;10.25;71.41
70200;BME280;57587;55.688;37.600;2023-03-25T08:53:24;97909.78;;;10.31;70.80
70200;BME280;57587;55.688;37.600;2023-03-25T08:55:53;97903.09;;;10.40;70.46
70200;BME280;57587;55.688;37.600;2023-03-25T08:58:21;97909.63;;;10.44;70.54
70200;BME280;57587;55.688;37.600;2023-03-25T09:00:49;97920.78;;;10.41;69.78
70200;BME280;57587;55.688;37.600;2023-03-25T09:03:23;97917.13;;;10.35;70.60
70200;BME280;57587;55.688;37.600;2023-03-25T09:05:52;97921.22;;;10.38;70.98
70200;BME280;57587;55.688;37.600;2023-03-25T09:08:20;97919.22;;;10.33;70.50
70200;BME280;57587;55.688;37.600;2023-03-25T09:10:48;97908.75;;;10.32;70.55
70200;BME280;57587;55.688;37.600;2023-03-25T09:13:15;97903.25;;;10.45;70.94
70200;BME280;57587;55.688;37.600;2023-03-25T09:15:42;97892.72;;;10.50;70.14
70200;BME280;57587;55.688;37.600;2023-03-25T09:18:09;97908.13;;;10.67;69.97
70200;BME280;57587;55.688;37.600;2023-03-25T09:20:36;97901.19;;;10.77;69.66
70200;BME280;57587;55.688;37.600;2023-03-25T09:23:03;97898.06;;;10.80;69.74
70200;BME280;57587;55.688;37.600;2023-03-25T09:25:30;97908.47;;;10.89;69.50
70200;BME280;57587;55.688;37.600;2023-03-25T09:27:58;97896.59;;;10.84;69.65
70200;BME280;57587;55.688;37.600;2023-03-25T09:30:25;97899.81;;;10.75;69.76
70200;BME280;57587;55.688;37.600;2023-03-25T09:32:52;97906.69;;;10.82;69.68
70200;BME280;57587;55.688;37.600;2023-03-25T09:35:19;97908.41;;;10.77;69.68
70200;BME280;57587;55.688;37.600;2023-03-25T09:37:46;97910.81;;;10.67;70.17
70200;BME280;57587;55.688;37.600;2023-03-25T09:40:19;97911.97;;;10.71;70.25
70200;BME280;57587;55.688;37.600;2023-03-25T09:45:33;97924.75;;;10.87;69.49
70200;BME280;57587;55.688;37.600;2023-03-25T09:50:33;97931.56;;;11.01;69.23
70200;BME280;57587;55.688;37.600;2023-03-25T09:53:30;97937.47;;;11.22;68.93
70200;BME280;57587;55.688;37.600;2023-03-25T09:56:03;97931.91;;;11.35;68.25
70200;BME280;57587;55.688;37.600;2023-03-25T09:58:42;97933.34;;;11.49;67.75
70200;BME280;57587;55.688;37.600;2023-03-25T10:09:47;97942.16;;;11.38;68.18
70200;BME280;57587;55.688;37.600;2023-03-25T10:15:23;97936.34;;;11.41;67.80
70200;BME280;57587;55.688;37.600;2023-03-25T10:20:51;97930.78;;;11.54;67.82
70200;BME280;57587;55.688;37.600;2023-03-25T10:23:45;97942.69;;;11.59;67.66
70200;BME280;57587;55.688;37.600;2023-03-25T10:26:27;97938.72;;;11.73;67.30
70200;BME280;57587;55.688;37.600;2023-03-25T10:29:11;97930.53;;;11.86;66.95
70200;BME280;57587;55.688;37.600;2023-03-25T10:31:52;97938.19;;;11.94;66.67
70200;BME280;57587;55.688;37.600;2023-03-25T10:34:42;97943.81;;;11.93;66.53
70200;BME280;57587;55.688;37.600;2023-03-25T10:37:16;97939.72;;;11.90;66.72
70200;BME280;57587;55.688;37.600;2023-03-25T10:39:49;97943.56;;;11.94;66.69
70200;BME280;57587;55.688;37.600;2023-03-25T10:42:37;97934.56;;;11.89;66.87
70200;BME280;57587;55.688;37.600;2023-03-25T10:45:14;97945.28;;;11.89;66.82
70200;BME280;57587;55.688;37.600;2023-03-25T10:47:45;97940.19;;;11.87;66.82
70200;BME280;57587;55.688;37.600;2023-03-25T10:50:18;97948.81;;;11.89;66.88
70200;BME280;57587;55.688;37.600;2023-03-25T10:52:48;97944.34;;;11.83;67.04
70200;BME280;57587;55.688;37.600;2023-03-25T10:55:27;97943.91;;;11.86;67.08
70200;BME280;57587;55.688;37.600;2023-03-25T10:57:59;97929.09;;;11.84;67.42
70200;BME280;57587;55.688;37.600;2023-03-25T11:00:31;97931.56;;;11.97;67.00
70200;BME280;57587;55.688;37.600;2023-03-25T11:03:02;97929.34;;;12.06;66.74
70200;BME280;57587;55.688;37.600;2023-03-25T11:05:34;97930.16;;;12.06;66.41
70200;BME280;57587;55.688;37.600;2023-03-25T11:08:08;97939.81;;;12.07;66.83
70200;BME280;57587;55.688;37.600;2023-03-25T11:10:57;97936.25;;;12.02;67.01
70200;BME280;57587;55.688;37.600;2023-03-25T11:13:33;97937.50;;;12.11;66.88
70200;BME280;57587;55.688;37.600;2023-03-25T11:16:13;97943.09;;;12.09;66.88
70200;BME280;57587;55.688;37.600;2023-03-25T11:18:44;97929.00;;;11.90;67.20
70200;BME280;57587;55.688;37.600;2023-03-25T11:21:16;97935.06;;;11.97;67.49
70200;BME280;57587;55.688;37.600;2023-03-25T11:23:54;97936.25;;;12.02;67.26
70200;BME280;57587;55.688;37.600;2023-03-25T11:26:39;97942.75;;;12.06;67.50
70200;BME280;57587;55.688;37.600;2023-03-25T11:29:18;97938.22;;;12.18;66.62
70200;BME280;57587;55.688;37.600;2023-03-25T11:31:56;97940.88;;;12.18;66.77
70200;BME280;57587;55.688;37.600;2023-03-25T11:34:24;97941.00;;;12.11;66.87
70200;BME280;57587;55.688;37.600;2023-03-25T11:36:59;97934.59;;;12.00;67.10
70200;BME280;57587;55.688;37.600;2023-03-25T11:39:34;97933.31;;;12.03;67.51
70200;BME280;57587;55.688;37.600;2023-03-25T11:42:37;97918.75;;;11.99;67.38
70200;BME280;57587;55.688;37.600;2023-03-25T11:45:06;97927.59;;;11.99;67.24
70200;BME280;57587;55.688;37.600;2023-03-25T11:47:37;97944.72;;;12.10;67.52
70200;BME280;57587;55.688;37.600;2023-03-25T11:50:05;97943.78;;;12.05;67.36
70200;BME280;57587;55.688;37.600;2023-03-25T11:52:40;97938.78;;;11.96;67.38
70200;BME280;57587;55.688;37.600;2023-03-25T11:55:26;97941.59;;;12.02;67.57
70200;BME280;57587;55.688;37.600;2023-03-25T11:57:55;97941.94;;;12.05;67.21
70200;BME280;57587;55.688;37.600;2023-03-25T12:02:59;97941.69;;;11.95;67.79
70200;BME280;57587;55.688;37.600;2023-03-25T12:05:27;97947.16;;;11.88;68.15
70200;BME280;57587;55.688;37.600;2023-03-25T12:08:20;97948.28;;;11.69;68.87
70200;BME280;57587;55.688;37.600;2023-03-25T12:10:54;97948.16;;;11.64;68.95
70200;BME280;57587;55.688;37.600;2023-03-25T12:19:25;97960.88;;;11.80;68.81
70200;BME280;57587;55.688;37.600;2023-03-25T12:25:12;97949.78;;;11.76;68.72
70200;BME280;57587;55.688;37.600;2023-03-25T12:27:55;97954.34;;;11.76;68.82
70200;BME280;57587;55.688;37.600;2023-03-25T12:30:51;97960.00;;;11.86;68.53
70200;BME280;57587;55.688;37.600;2023-03-25T12:42:10;97944.75;;;11.98;67.88
70200;BME280;57587;55.688;37.600;2023-03-25T12:47:54;97938.44;;;12.28;66.85
70200;BME280;57587;55.688;37.600;2023-03-25T12:53:28;97951.16;;;12.21;66.91
70200;BME280;57587;55.688;37.600;2023-03-25T12:56:21;97961.06;;;12.20;66.61
70200;BME280;57587;55.688;37.600;2023-03-25T13:01:54;97951.25;;;12.03;67.01
70200;BME280;57587;55.688;37.600;2023-03-25T13:07:02;97945.19;;;12.07;67.13
70200;BME280;57587;55.688;37.600;2023-03-25T13:09:45;97944.25;;;12.13;67.01
70200;BME280;57587;55.688;37.600;2023-03-25T13:12:27;97941.34;;;12.27;66.47
70200;BME280;57587;55.688;37.600;2023-03-25T13:15:01;97939.13;;;12.35;66.28
70200;BME280;57587;55.688;37.600;2023-03-25T13:17:38;97940.63;;;12.31;66.26
70200;BME280;57587;55.688;37.600;2023-03-25T13:20:09;97938.91;;;12.37;66.33
70200;BME280;57587;55.688;37.600;2023-03-25T13:22:42;97945.06;;;12.37;66.00
70200;BME280;57587;55.688;37.600;2023-03-25T13:25:23;97949.50;;;12.43;66.14
70200;BME280;57587;55.688;37.600;2023-03-25T13:27:54;97944.94;;;12.32;65.85
70200;BME280;57587;55.688;37.600;2023-03-25T13:30:33;97957.31;;;12.33;65.82
70200;BME280;57587;55.688;37.600;2023-03-25T13:33:31;97943.66;;;12.23;66.46
70200;BME280;57587;55.688;37.600;2023-03-25T13:36:19;97935.53;;;12.18;66.39
70200;BME280;57587;55.688;37.600;2023-03-25T13:38:54;97925.97;;;12.22;66.26
70200;BME280;57587;55.688;37.600;2023-03-25T13:41:43;97936.44;;;12.35;65.94
70200;BME280;57587;55.688;37.600;2023-03-25T13:44:33;97953.84;;;12.33;66.01
70200;BME280;57587;55.688;37.600;2023-03-25T13:52:14;97955.56;;;12.27;65.99
70200;BME280;57587;55.688;37.600;2023-03-25T13:54:55;97962.91;;;12.32;66.17
70200;BME280;57587;55.688;37.600;2023-03-25T14:09:29;97950.69;;;12.24;66.29
70200;BME280;57587;55.688;37.600;2023-03-25T14:12:09;97957.66;;;12.25;66.16
70200;BME280;57587;55.688;37.600;2023-03-25T14:14:43;97954.84;;;12.20;66.15
70200;BME280;57587;55.688;37.600;2023-03-25T14:17:14;97960.00;;;12.10;66.53
70200;BME280;57587;55.688;37.600;2023-03-25T14:19:50;97959.31;;;12.03;66.65
70200;BME280;57587;55.688;37.600;2023-03-25T14:22:23;97951.59;;;11.94;67.20
70200;BME280;57587;55.688;37.600;2023-03-25T14:24:53;97951.72;;;11.88;66.91
70200;BME280;57587;55.688;37.600;2023-03-25T14:27:30;97963.84;;;11.90;67.24
70200;BME280;57587;55.688;37.600;2023-03-25T14:30:04;97957.06;;;11.88;67.13
70200;BME280;57587;55.688;37.600;2023-03-25T14:32:40;97962.16;;;11.77;67.72
70200;BME280;57587;55.688;37.600;2023-03-25T14:38:19;97954.34;;;11.76;67.61
70200;BME280;57587;55.688;37.600;2023-03-25T14:40:49;97957.63;;;11.78;67.68
70200;BME280;57587;55.688;37.600;2023-03-25T14:43:32;97953.41;;;11.82;67.23
70200;BME280;57587;55.688;37.600;2023-03-25T14:49:05;97969.13;;;11.67;67.63
70200;BME280;57587;55.688;37.600;2023-03-25T14:57:13;97975.31;;;11.79;67.47
70200;BME280;57587;55.688;37.600;2023-03-25T14:59:48;97981.59;;;11.73;67.85
70200;BME280;57587;55.688;37.600;2023-03-25T15:02:21;97984.72;;;11.70;67.68
70200;BME280;57587;55.688;37.600;2023-03-25T15:05:12;97973.00;;;11.71;67.90
70200;BME280;57587;55.688;37.600;2023-03-25T15:07:47;97984.97;;;11.68;67.88
70200;BME280;57587;55.688;37.600;2023-03-25T15:10:41;97985.09;;;11.62;68.36
70200;BME280;57587;55.688;37.600;2023-03-25T15:13:17;97985.53;;;11.59;68.41
70200;BME280;57587;55.688;37.600;2023-03-25T15:24:16;97984.69;;;11.46;68.68
70200;BME280;57587;55.688;37.600;2023-03-25T15:26:42;97992.72;;;11.46;69.17
70200;BME280;57587;55.688;37.600;2023-03-25T15:34:41;98007.38;;;11.44;68.68
70200;BME280;57587;55.688;37.600;2023-03-25T15:37:17;98001.97;;;11.32;69.85
70200;BME280;57587;55.688;37.600;2023-03-25T15:46:27;98004.75;;;11.25;69.65
70200;BME280;57587;55.688;37.600;2023-03-25T15:54:50;98005.94;;;11.11;69.93
70200;BME280;57587;55.688;37.600;2023-03-25T15:57:25;98016.19;;;11.14;70.28
70200;BME280;57587;55.688;37.600;2023-03-25T16:00:12;98012.94;;;11.12;70.22